• Join FlightAware (Why Join?)
  • Login
  • US Flag 
 
03:31AM EST


 

Airport Tracker/Info


-or-


 

Live Flight TrackerFlight Track Log ✈ EJA829P ✈ 13-Nov-2013 ✈ KBLM - KTEB

Flight Track Log - Related Links

Times and Time Zones

All times are in EST time to prevent confusion due to time zone crossing. See the EJA829P flight status page for this flight to view local times or setup timezone preferences in your user account.

Time Position Orientation Groundspeed Altitude Reporting Facility
EST Latitude Longitude Course Direction KTS MPH feet Rate Location/Type
05:34PM 40.1500 -74.2667 339° North 218 251 4,000  Level New York TRACON
05:35PM 40.1667 -74.3333 288° West 231 266 4,000  Level New York TRACON
05:36PM 40.1833 -74.4167 285° West 230 265 4,000  Level New York TRACON
05:37PM 40.2167 -74.5000 298° West 240 276 4,000  Level New York TRACON
05:38PM 40.2667 -74.5500 323° Northwest 238 274 4,000  Level New York TRACON
05:39PM 40.6736 -74.0779 52° Northeast  Level Estimated
05:39PM 40.3167 -74.5833 333° Northwest 240 276 4,000  Level New York TRACON
05:40PM 40.7388 -74.1108 339° North  Level FlightAware Approximate
05:40PM 40.3833 -74.6333 330° Northwest 240 276 3,800  Level New York TRACON
05:41PM 40.4500 -74.6500 349° North 245 282 3,100 -420 Descending New York TRACON
05:42PM 40.5000 -74.6167 27° Northeast 268 308 3,000 -60 Descending New York TRACON
05:43PM 40.5333 -74.5333 62° Northeast 239 275 3,000  Level New York TRACON
05:44PM 40.5667 -74.4667 57° Northeast 253 291 3,000  Level New York TRACON
05:45PM 40.6167 -74.4167 37° Northeast 212 244 3,000 -480 Level New York TRACON
05:46PM 40.6500 -74.3500 57° Northeast 185 213 2,100 -540 Descending New York TRACON
05:47PM 40.6833 -74.3000 49° Northeast 185 213 2,000 -120 Descending New York TRACON
05:48PM 40.7167 -74.2500 49° Northeast 186 214 1,900 -240 Descending New York TRACON
05:49PM 40.7667 -74.2000 37° Northeast 187 215 1,500 -240 Descending New York TRACON
05:50PM 40.7833 -74.1500 66° East 175 201 1,500 -300 Level New York TRACON
05:51PM 40.8167 -74.1167 37° Northeast 129 148 1,000 -660 Descending New York TRACON
05:52PM 40.8333 -74.0833 57° Northeast 123 142 300 -780 Descending New York TRACON